createdAt,value
2023-04-16T00:02:05.611Z,7.80
2023-04-16T00:04:34.728Z,8.20
2023-04-16T00:07:03.492Z,7.50
2023-04-16T00:09:32.271Z,7.30
2023-04-16T00:12:01.828Z,8.10
2023-04-16T00:14:30.847Z,7.40
2023-04-16T00:16:59.738Z,8.30
2023-04-16T00:19:32.007Z,8.30
2023-04-16T00:22:01.151Z,7.90
2023-04-16T00:24:30.185Z,8.10
2023-04-16T00:26:58.753Z,8.20
2023-04-16T00:29:29.478Z,7.10
2023-04-16T00:31:58.670Z,8.10
2023-04-16T00:34:27.271Z,8.40
2023-04-16T00:36:56.087Z,7.80
2023-04-16T00:39:24.985Z,8.00
2023-04-16T00:41:54.045Z,8.60
2023-04-16T00:44:22.928Z,7.90
2023-04-16T00:46:52.135Z,8.10
2023-04-16T00:49:21.555Z,8.00
2023-04-16T00:51:51.185Z,7.00
2023-04-16T00:54:20.277Z,7.50
2023-04-16T00:56:49.781Z,7.30
2023-04-16T00:59:18.825Z,9.00
2023-04-16T01:01:47.709Z,7.90
2023-04-16T01:04:16.803Z,7.70
2023-04-16T01:06:45.709Z,7.50
2023-04-16T01:09:16.119Z,8.20
2023-04-16T01:11:44.999Z,7.50
2023-04-16T01:14:13.801Z,7.80
2023-04-16T01:16:42.631Z,5.50
2023-04-16T01:19:11.668Z,5.80
2023-04-16T01:21:40.723Z,6.10
2023-04-16T01:24:09.750Z,6.00
2023-04-16T01:26:38.531Z,5.80
2023-04-16T01:29:07.845Z,5.50
2023-04-16T01:31:37.078Z,4.60
2023-04-16T01:34:11.012Z,6.20
2023-04-16T01:36:39.940Z,6.30
2023-04-16T01:39:14.070Z,6.00
2023-04-16T01:41:43.885Z,6.80
2023-04-16T01:44:12.314Z,7.00
2023-04-16T01:46:41.517Z,7.80
2023-04-16T01:49:10.775Z,5.00
2023-04-16T01:51:39.393Z,8.30
2023-04-16T01:54:08.459Z,8.20
2023-04-16T01:56:37.436Z,4.70
2023-04-16T01:59:05.887Z,6.90
2023-04-16T02:01:39.533Z,5.90
2023-04-16T02:04:08.579Z,6.40
2023-04-16T02:06:37.086Z,6.30
2023-04-16T02:09:06.793Z,6.00
2023-04-16T02:11:35.662Z,5.80
2023-04-16T02:14:04.102Z,5.30
2023-04-16T02:16:33.523Z,5.80
2023-04-16T02:19:11.720Z,6.70
2023-04-16T02:21:42.461Z,6.70
2023-04-16T02:24:11.073Z,6.80
2023-04-16T02:26:39.929Z,6.50
2023-04-16T02:29:11.953Z,6.50
2023-04-16T02:31:44.886Z,7.20
2023-04-16T02:34:15.091Z,6.70
2023-04-16T02:36:43.729Z,5.30
2023-04-16T02:39:12.514Z,8.30
2023-04-16T02:41:41.890Z,7.60
2023-04-16T02:44:10.350Z,6.00
2023-04-16T02:46:38.936Z,7.60
2023-04-16T02:49:08.354Z,7.50
2023-04-16T02:51:37.214Z,7.10
2023-04-16T02:54:06.183Z,7.10
2023-04-16T02:56:35.530Z,7.40
2023-04-16T02:59:04.099Z,7.20
2023-04-16T03:01:33.100Z,6.80
2023-04-16T03:04:02.269Z,7.00
2023-04-16T03:06:31.689Z,7.10
2023-04-16T03:09:00.460Z,7.00
2023-04-16T03:11:29.735Z,8.40
2023-04-16T03:13:58.221Z,9.60
2023-04-16T03:16:27.313Z,8.80
2023-04-16T03:18:56.376Z,8.90
2023-04-16T03:21:24.829Z,7.90
2023-04-16T03:23:54.243Z,8.20
2023-04-16T03:26:24.186Z,8.10
2023-04-16T03:28:52.846Z,7.40
2023-04-16T03:31:25.100Z,9.00
2023-04-16T03:33:54.431Z,11.30
2023-04-16T03:36:23.697Z,6.50
2023-04-16T03:38:52.372Z,9.40
2023-04-16T03:41:21.440Z,10.50
2023-04-16T03:43:50.297Z,7.00
2023-04-16T03:46:19.110Z,8.30
2023-04-16T03:48:47.882Z,8.20
2023-04-16T03:51:17.248Z,8.20
2023-04-16T03:53:46.530Z,8.20
2023-04-16T03:56:15.673Z,6.00
2023-04-16T03:58:44.501Z,6.50
2023-04-16T04:01:13.274Z,8.70
2023-04-16T04:03:42.338Z,8.30
2023-04-16T04:06:12.202Z,9.30
2023-04-16T04:08:40.907Z,16.70
2023-04-16T04:11:09.369Z,11.00
2023-04-16T04:13:38.806Z,13.10
2023-04-16T04:16:08.022Z,14.70
2023-04-16T04:18:36.536Z,11.60
2023-04-16T04:21:09.212Z,12.70
2023-04-16T04:23:38.600Z,11.80
2023-04-16T04:26:07.864Z,10.80
2023-04-16T04:28:37.325Z,10.20
2023-04-16T04:31:06.117Z,11.00
2023-04-16T04:33:35.325Z,11.30
2023-04-16T04:36:04.213Z,11.30
2023-04-16T04:38:34.396Z,11.40
2023-04-16T04:41:03.075Z,15.00
2023-04-16T04:43:34.941Z,11.60
2023-04-16T04:46:04.254Z,8.80
2023-04-16T04:48:33.021Z,8.80
2023-04-16T04:51:04.236Z,9.80
2023-04-16T04:53:35.007Z,9.40
2023-04-16T04:56:12.137Z,10.00
2023-04-16T04:58:42.822Z,16.90
2023-04-16T05:01:11.789Z,14.10
2023-04-16T05:03:40.399Z,13.00
2023-04-16T05:06:09.669Z,13.10
2023-04-16T05:08:38.652Z,12.20
2023-04-16T05:11:07.098Z,12.20
2023-04-16T05:13:35.923Z,10.80
2023-04-16T05:16:05.436Z,9.30
2023-04-16T05:18:33.874Z,7.60
2023-04-16T05:21:02.582Z,10.30
2023-04-16T05:23:32.166Z,10.70
2023-04-16T05:26:00.999Z,8.30
2023-04-16T05:28:30.991Z,10.40
2023-04-16T05:30:59.815Z,8.50
2023-04-16T05:33:28.466Z,9.30
2023-04-16T05:35:57.249Z,9.70
2023-04-16T05:38:25.896Z,9.50
2023-04-16T05:40:54.778Z,7.40
2023-04-16T05:43:23.473Z,8.30
2023-04-16T05:45:52.147Z,8.10
2023-04-16T05:48:20.736Z,6.40
2023-04-16T05:50:50.210Z,7.00
2023-04-16T05:53:19.862Z,7.00
2023-04-16T05:55:48.717Z,6.60
2023-04-16T05:58:17.604Z,6.10
2023-04-16T06:00:46.300Z,6.30
2023-04-16T06:03:15.292Z,6.70
2023-04-16T06:05:44.854Z,7.90
2023-04-16T06:08:13.693Z,7.40
2023-04-16T06:10:42.399Z,7.50
2023-04-16T06:13:11.720Z,8.60
2023-04-16T06:15:40.376Z,8.00
2023-04-16T06:18:09.069Z,7.90
2023-04-16T06:20:38.400Z,7.40
2023-04-16T06:23:06.935Z,8.50
2023-04-16T06:25:35.393Z,7.40
2023-04-16T06:28:04.595Z,7.00
2023-04-16T06:30:34.082Z,7.60
2023-04-16T06:33:02.677Z,8.90
2023-04-16T06:35:31.760Z,6.60
2023-04-16T06:38:00.715Z,6.80
2023-04-16T06:40:29.276Z,9.50
2023-04-16T06:42:58.457Z,10.50
2023-04-16T06:45:27.473Z,10.90
2023-04-16T06:47:56.102Z,15.30
2023-04-16T06:50:27.109Z,13.90
2023-04-16T06:52:56.710Z,10.40
2023-04-16T06:55:25.130Z,8.90
2023-04-16T06:57:53.994Z,8.50
2023-04-16T07:00:23.100Z,44.10
2023-04-16T07:02:52.054Z,7.40
2023-04-16T07:05:21.528Z,7.70
2023-04-16T07:07:50.462Z,7.90
2023-04-16T07:10:19.170Z,6.70
2023-04-16T07:12:47.967Z,8.00
2023-04-16T07:15:17.041Z,11.00
2023-04-16T07:17:45.828Z,9.30
2023-04-16T07:20:14.773Z,9.50
2023-04-16T07:22:44.214Z,6.10
2023-04-16T07:25:12.873Z,6.00
2023-04-16T07:27:41.598Z,49.60
2023-04-16T07:30:11.157Z,16.40
2023-04-16T07:32:39.777Z,7.00
2023-04-16T07:35:09.021Z,7.70
2023-04-16T07:37:37.774Z,9.00
2023-04-16T07:40:07.137Z,8.10
2023-04-16T07:42:36.205Z,7.90
2023-04-16T07:45:05.491Z,7.50
2023-04-16T07:47:34.121Z,7.80
2023-04-16T07:50:03.103Z,7.20
2023-04-16T07:52:32.363Z,8.40
2023-04-16T07:55:01.816Z,8.80
2023-04-16T07:59:59.868Z,28.80
2023-04-16T08:02:28.666Z,11.50
2023-04-16T08:04:58.007Z,9.20
2023-04-16T08:07:27.227Z,10.60
2023-04-16T08:09:55.736Z,9.50
2023-04-16T08:12:24.960Z,9.60
2023-04-16T08:14:53.737Z,11.40
2023-04-16T08:17:22.531Z,9.50
2023-04-16T08:19:51.750Z,12.40
2023-04-16T08:22:20.589Z,13.40
2023-04-16T08:24:49.078Z,11.30
2023-04-16T08:27:19.945Z,11.90
2023-04-16T08:29:49.424Z,13.80
2023-04-16T08:32:17.996Z,12.20
2023-04-16T08:34:46.986Z,13.80
2023-04-16T08:37:15.746Z,11.60
2023-04-16T08:39:44.679Z,11.00
2023-04-16T08:42:28.731Z,13.30
2023-04-16T08:45:09.253Z,11.10
2023-04-16T08:47:39.278Z,10.80
2023-04-16T08:50:11.523Z,10.90
2023-04-16T08:52:47.703Z,13.00
2023-04-16T08:55:19.081Z,9.60
2023-04-16T08:57:51.554Z,8.40
2023-04-16T09:00:21.495Z,8.70
2023-04-16T09:02:51.789Z,8.20
2023-04-16T09:05:23.670Z,9.00
2023-04-16T09:07:54.800Z,12.20
2023-04-16T09:10:24.078Z,10.40
2023-04-16T09:12:52.908Z,12.20
2023-04-16T09:15:22.812Z,19.30
2023-04-16T09:17:51.913Z,11.90
2023-04-16T09:20:21.336Z,15.70
2023-04-16T09:22:50.591Z,43.00
2023-04-16T09:25:22.797Z,12.70
2023-04-16T09:27:51.721Z,10.60
2023-04-16T09:30:25.029Z,12.20
2023-04-16T09:33:13.792Z,9.80
2023-04-16T09:35:54.929Z,13.20
2023-04-16T09:38:26.820Z,9.40
2023-04-16T09:41:08.739Z,12.20
2023-04-16T09:43:37.751Z,9.40
2023-04-16T09:46:08.145Z,8.90
2023-04-16T09:48:41.189Z,8.40
2023-04-16T09:51:23.587Z,9.10
2023-04-16T09:53:54.340Z,8.40
2023-04-16T09:56:30.657Z,8.30
2023-04-16T09:59:02.949Z,7.90
2023-04-16T10:01:31.600Z,8.40
2023-04-16T10:04:01.905Z,8.30
2023-04-16T10:06:31.821Z,10.90
2023-04-16T10:09:17.197Z,7.80
2023-04-16T10:11:46.622Z,8.60
2023-04-16T10:14:15.071Z,8.10
2023-04-16T10:16:44.344Z,8.70
2023-04-16T10:19:14.407Z,11.30
2023-04-16T10:21:43.309Z,11.10
2023-04-16T10:24:13.047Z,10.60
2023-04-16T10:26:43.018Z,11.40
2023-04-16T10:29:15.221Z,11.00
2023-04-16T10:31:45.506Z,8.50
2023-04-16T10:34:15.298Z,7.60
2023-04-16T10:36:43.770Z,9.60
2023-04-16T10:39:16.822Z,8.80
2023-04-16T10:41:45.824Z,9.80
2023-04-16T10:44:18.362Z,9.90
2023-04-16T10:47:00.561Z,12.60
2023-04-16T10:49:29.872Z,11.40
2023-04-16T10:52:08.493Z,15.70
2023-04-16T10:54:38.089Z,8.90
2023-04-16T10:57:09.311Z,8.60
2023-04-16T10:59:40.388Z,9.90
2023-04-16T11:02:14.085Z,14.30
2023-04-16T11:04:47.518Z,9.60
2023-04-16T11:07:20.096Z,21.70
2023-04-16T11:10:00.227Z,9.00
2023-04-16T11:12:46.743Z,10.20
2023-04-16T11:15:20.117Z,9.50
2023-04-16T11:17:52.927Z,11.10
2023-04-16T11:20:26.690Z,10.60
2023-04-16T11:22:57.204Z,12.40
2023-04-16T11:25:30.131Z,12.20
2023-04-16T11:28:01.988Z,9.90
2023-04-16T11:30:35.811Z,9.20
2023-04-16T11:33:12.109Z,9.50
2023-04-16T11:35:41.776Z,9.60
2023-04-16T11:38:10.294Z,9.20
2023-04-16T11:40:38.779Z,9.80
2023-04-16T11:43:16.121Z,8.40
2023-04-16T11:46:05.560Z,8.80
2023-04-16T11:48:58.691Z,9.60
2023-04-16T11:51:27.565Z,8.70
2023-04-16T11:53:56.481Z,8.10
2023-04-16T11:56:30.251Z,17.10
2023-04-16T11:59:14.420Z,7.40
2023-04-16T12:01:48.013Z,8.00
2023-04-16T12:04:20.125Z,8.90
2023-04-16T12:07:12.416Z,9.00
2023-04-16T12:09:43.248Z,8.90
2023-04-16T12:12:32.427Z,8.10
2023-04-16T12:15:05.579Z,7.70
2023-04-16T12:17:36.171Z,8.50
2023-04-16T12:20:10.030Z,9.10
2023-04-16T12:22:41.816Z,9.20
2023-04-16T12:25:16.292Z,9.20
2023-04-16T12:27:53.955Z,8.10
2023-04-16T12:30:26.353Z,7.60
2023-04-16T12:33:14.888Z,7.90
2023-04-16T12:35:44.332Z,8.70
2023-04-16T12:38:15.707Z,8.40
2023-04-16T12:40:44.268Z,10.00
2023-04-16T12:43:13.396Z,14.30
2023-04-16T12:45:42.899Z,8.30
2023-04-16T12:48:11.849Z,8.60
2023-04-16T12:50:40.738Z,7.90
2023-04-16T12:53:09.249Z,8.70
2023-04-16T12:55:38.204Z,7.30
2023-04-16T12:58:07.105Z,7.30
2023-04-16T13:00:36.434Z,7.60
2023-04-16T13:03:05.194Z,6.60
2023-04-16T13:05:34.731Z,6.10
2023-04-16T13:08:03.324Z,6.40
2023-04-16T13:10:32.077Z,7.10
2023-04-16T13:13:00.935Z,6.80
2023-04-16T13:15:29.566Z,7.40
2023-04-16T13:17:58.469Z,6.40
2023-04-16T13:20:27.401Z,6.50
2023-04-16T13:22:56.477Z,5.90
2023-04-16T13:25:25.310Z,6.70
2023-04-16T13:27:54.044Z,5.60
2023-04-16T13:30:22.736Z,6.10
2023-04-16T13:32:51.382Z,6.40
2023-04-16T13:35:20.476Z,5.90
2023-04-16T13:37:49.331Z,4.80
2023-04-16T13:40:18.087Z,5.00
2023-04-16T13:42:47.301Z,5.10
2023-04-16T13:45:16.300Z,5.40
2023-04-16T13:47:44.767Z,5.90
2023-04-16T13:50:13.963Z,6.40
2023-04-16T13:52:42.524Z,6.20
2023-04-16T13:55:14.188Z,6.00
2023-04-16T13:57:43.173Z,6.20
2023-04-16T14:00:13.349Z,5.00
2023-04-16T14:02:43.246Z,4.70
2023-04-16T14:05:12.470Z,5.70
2023-04-16T14:07:41.640Z,5.20
2023-04-16T14:10:10.637Z,5.20
2023-04-16T14:12:39.827Z,5.20
2023-04-16T14:15:10.947Z,5.70
2023-04-16T14:17:39.457Z,5.40
2023-04-16T14:20:09.520Z,6.10
2023-04-16T14:22:38.577Z,5.90
2023-04-16T14:25:07.542Z,6.10
2023-04-16T14:30:07.524Z,6.30
2023-04-16T14:32:36.717Z,6.90
2023-04-16T14:35:06.102Z,6.30
2023-04-16T14:37:36.956Z,6.40
2023-04-16T14:40:09.114Z,6.50
2023-04-16T14:42:39.237Z,7.70
2023-04-16T14:45:08.451Z,7.00
2023-04-16T14:47:38.518Z,7.90
2023-04-16T14:52:36.672Z,7.50
2023-04-16T14:55:06.090Z,13.80
2023-04-16T14:57:35.990Z,12.80
2023-04-16T15:00:10.325Z,10.10
2023-04-16T15:02:39.961Z,10.80
2023-04-16T15:05:10.841Z,8.30
2023-04-16T15:07:39.967Z,7.50
2023-04-16T15:10:10.262Z,7.40
2023-04-16T15:12:39.462Z,4.70
2023-04-16T15:15:09.302Z,7.00
2023-04-16T15:17:38.185Z,4.50
2023-04-16T15:20:08.543Z,2.90
2023-04-16T15:22:39.017Z,4.20
2023-04-16T15:27:36.983Z,3.90
2023-04-16T15:30:07.297Z,3.10
2023-04-16T15:32:35.936Z,6.50
2023-04-16T15:35:05.191Z,6.40
2023-04-16T15:37:34.122Z,3.60
2023-04-16T15:40:05.752Z,4.00
2023-04-16T15:42:35.085Z,2.90
2023-04-16T15:45:04.034Z,2.90
2023-04-16T15:47:32.672Z,4.20
2023-04-16T15:50:01.444Z,2.80
2023-04-16T15:52:31.004Z,2.60
2023-04-16T15:55:01.699Z,7.60
2023-04-16T15:57:32.108Z,5.00
2023-04-16T16:00:06.492Z,12.80
2023-04-16T16:02:36.644Z,6.20
2023-04-16T16:05:07.904Z,5.30
2023-04-16T16:07:37.188Z,6.80
2023-04-16T16:10:07.216Z,5.10
2023-04-16T16:12:36.035Z,17.70
2023-04-16T16:15:06.738Z,5.10
2023-04-16T16:17:36.657Z,5.00
2023-04-16T16:20:10.058Z,4.00
2023-04-16T16:22:39.502Z,3.10
2023-04-16T16:25:08.573Z,2.80
2023-04-16T16:27:37.117Z,2.90
2023-04-16T16:30:07.980Z,3.20
2023-04-16T16:32:37.882Z,3.10
2023-04-16T16:35:09.469Z,3.10
2023-04-16T16:37:38.854Z,4.80
2023-04-16T16:40:09.108Z,7.20
2023-04-16T16:42:37.883Z,10.50
2023-04-16T16:45:07.061Z,3.90
2023-04-16T16:47:36.141Z,4.20
2023-04-16T16:50:06.078Z,4.10
2023-04-16T16:52:34.524Z,5.80
2023-04-16T16:55:04.301Z,5.30
2023-04-16T16:57:33.044Z,7.10
2023-04-16T17:00:01.542Z,8.10
2023-04-16T17:02:30.653Z,5.50
2023-04-16T17:05:09.521Z,4.20
2023-04-16T17:07:39.359Z,4.70
2023-04-16T17:10:09.194Z,3.60
2023-04-16T17:12:37.893Z,3.90
2023-04-16T17:15:06.862Z,4.40
2023-04-16T17:17:35.629Z,6.00
2023-04-16T17:20:09.357Z,14.30
2023-04-16T17:22:40.075Z,10.60
2023-04-16T17:25:08.956Z,8.00
2023-04-16T17:27:37.725Z,8.90
2023-04-16T17:30:08.036Z,9.00
2023-04-16T17:32:37.072Z,9.30
2023-04-16T17:35:07.204Z,8.30
2023-04-16T17:37:36.097Z,8.00
2023-04-16T17:40:07.858Z,22.00
2023-04-16T17:42:37.470Z,16.90
2023-04-16T17:45:07.077Z,9.40
2023-04-16T17:47:36.607Z,8.60
2023-04-16T17:50:06.500Z,7.20
2023-04-16T17:52:35.183Z,6.50
2023-04-16T17:55:05.266Z,10.30
2023-04-16T17:57:34.163Z,7.40
2023-04-16T18:00:05.742Z,9.00
2023-04-16T18:02:43.653Z,7.90
2023-04-16T18:05:12.770Z,5.20
2023-04-16T18:07:41.529Z,9.40
2023-04-16T18:10:10.658Z,7.60
2023-04-16T18:12:39.467Z,8.50
2023-04-16T18:15:09.368Z,16.30
2023-04-16T18:17:38.377Z,15.30
2023-04-16T18:20:09.233Z,10.20
2023-04-16T18:22:38.099Z,12.50
2023-04-16T18:25:07.888Z,17.50
2023-04-16T18:27:36.523Z,16.70
2023-04-16T18:30:06.323Z,16.10
2023-04-16T18:32:37.313Z,9.30
2023-04-16T18:35:07.869Z,13.70
2023-04-16T18:37:37.237Z,13.20
2023-04-16T18:40:07.422Z,15.80
2023-04-16T18:45:06.798Z,21.30
2023-04-16T18:47:35.369Z,19.70
2023-04-16T18:50:04.090Z,15.70
2023-04-16T18:52:33.167Z,16.80
2023-04-16T18:55:01.668Z,14.50
2023-04-16T18:57:30.889Z,15.80
2023-04-16T18:59:59.845Z,12.10
2023-04-16T19:02:28.412Z,17.50
2023-04-16T19:04:57.591Z,20.70
2023-04-16T19:07:26.618Z,22.20
2023-04-16T19:09:55.081Z,26.40
2023-04-16T19:12:23.975Z,23.60
2023-04-16T19:14:53.202Z,24.80
2023-04-16T19:17:21.706Z,23.30
2023-04-16T19:19:50.263Z,18.80
2023-04-16T19:22:19.376Z,19.30
2023-04-16T19:24:47.808Z,16.10
2023-04-16T19:27:16.439Z,15.70
2023-04-16T19:29:47.378Z,14.30
2023-04-16T19:32:15.940Z,14.40
2023-04-16T19:34:44.621Z,14.40
2023-04-16T19:37:13.756Z,13.00
2023-04-16T19:39:42.329Z,24.10
2023-04-16T19:42:11.161Z,15.00
2023-04-16T19:44:40.303Z,20.70
2023-04-16T19:47:08.774Z,21.60
2023-04-16T19:49:37.510Z,17.10
2023-04-16T19:52:06.459Z,16.50
2023-04-16T19:54:37.535Z,22.00
2023-04-16T19:57:06.359Z,16.40
2023-04-16T19:59:35.601Z,13.70
2023-04-16T20:02:04.209Z,12.20
2023-04-16T20:04:34.278Z,10.90
2023-04-16T20:09:31.760Z,36.50
2023-04-16T20:12:01.067Z,30.90
2023-04-16T20:14:30.785Z,59.40
2023-04-16T20:16:59.389Z,44.40
2023-04-16T20:19:32.166Z,17.50
2023-04-16T20:22:00.799Z,17.30
2023-04-16T20:24:31.318Z,14.90
2023-04-16T20:27:00.498Z,15.70
2023-04-16T20:29:29.248Z,20.50
2023-04-16T20:31:58.065Z,15.50
2023-04-16T20:34:28.367Z,26.70
2023-04-16T20:36:58.349Z,19.10
2023-04-16T20:39:27.682Z,22.10
2023-04-16T20:41:59.368Z,20.90
2023-04-16T20:44:33.579Z,18.90
2023-04-16T20:47:02.881Z,21.90
2023-04-16T20:49:34.950Z,17.10
2023-04-16T20:52:04.406Z,25.00
2023-04-16T20:54:32.980Z,19.20
2023-04-16T20:57:02.273Z,15.00
2023-04-16T20:59:32.649Z,15.80
2023-04-16T21:02:01.805Z,10.30
2023-04-16T21:04:30.339Z,14.50
2023-04-16T21:06:59.391Z,16.70
2023-04-16T21:09:27.930Z,14.60
2023-04-16T21:11:56.865Z,13.10
2023-04-16T21:14:25.841Z,14.10
2023-04-16T21:16:55.159Z,12.90
2023-04-16T21:19:23.619Z,12.30
2023-04-16T21:21:52.302Z,12.40
2023-04-16T21:24:21.239Z,14.20
2023-04-16T21:26:49.673Z,13.20
2023-04-16T21:29:18.171Z,17.20
2023-04-16T21:31:47.485Z,13.40
2023-04-16T21:34:15.992Z,11.70
2023-04-16T21:36:44.943Z,11.60
2023-04-16T21:39:15.220Z,12.20
2023-04-16T21:41:43.767Z,10.90
2023-04-16T21:44:12.602Z,12.10
2023-04-16T21:46:41.824Z,10.90
2023-04-16T21:49:10.571Z,11.90
2023-04-16T21:51:40.773Z,13.20
2023-04-16T21:56:38.262Z,12.80
2023-04-16T21:59:06.988Z,10.90
2023-04-16T22:01:36.161Z,10.10
2023-04-16T22:04:05.340Z,10.80
2023-04-16T22:06:34.022Z,10.90
2023-04-16T22:09:03.253Z,9.50
2023-04-16T22:11:32.063Z,9.80
2023-04-16T22:14:00.949Z,10.40
2023-04-16T22:16:29.873Z,8.60
2023-04-16T22:18:58.784Z,11.20
2023-04-16T22:21:28.132Z,11.90
2023-04-16T22:23:57.372Z,13.10
2023-04-16T22:26:26.459Z,12.90
2023-04-16T22:28:55.498Z,12.00
2023-04-16T22:31:24.457Z,12.90
2023-04-16T22:33:53.241Z,14.90
2023-04-16T22:36:22.545Z,13.80
2023-04-16T22:38:51.208Z,12.60
2023-04-16T22:41:19.624Z,13.80
2023-04-16T22:43:50.086Z,12.90
2023-04-16T22:46:22.555Z,12.80
2023-04-16T22:48:52.504Z,12.90
2023-04-16T22:51:24.664Z,13.10
2023-04-16T22:53:54.286Z,13.10
2023-04-16T22:56:22.785Z,10.90
2023-04-16T22:58:51.337Z,14.00
2023-04-16T23:01:20.682Z,12.00
2023-04-16T23:03:49.433Z,11.60
2023-04-16T23:06:17.963Z,12.10
2023-04-16T23:08:47.111Z,12.30
2023-04-16T23:11:15.882Z,11.10
2023-04-16T23:13:44.553Z,10.50
2023-04-16T23:16:14.020Z,9.90
2023-04-16T23:18:42.597Z,7.50
2023-04-16T23:21:11.329Z,8.60
2023-04-16T23:23:40.866Z,8.10
2023-04-16T23:26:09.834Z,8.30
2023-04-16T23:28:38.291Z,7.50
2023-04-16T23:31:08.069Z,9.20
2023-04-16T23:33:36.539Z,9.00
2023-04-16T23:36:05.383Z,9.00
2023-04-16T23:38:34.842Z,8.10
2023-04-16T23:41:03.261Z,9.80
2023-04-16T23:43:31.708Z,9.90
2023-04-16T23:46:02.776Z,9.90
2023-04-16T23:48:31.253Z,8.90
2023-04-16T23:50:59.724Z,8.10
2023-04-16T23:53:28.896Z,7.80
2023-04-16T23:55:57.368Z,8.50
2023-04-16T23:58:26.930Z,9.70
